createdAt,value
2022-10-24T17:25:07.025Z,4056.9
2022-10-24T17:30:40.478Z,4063
2022-10-24T17:36:23.779Z,4061.7
2022-10-24T17:41:59.248Z,4061.4
2022-10-24T17:53:33.244Z,4057.7
2022-10-24T17:59:23.971Z,4059.4
2022-10-24T18:05:01.485Z,4057.7
2022-10-24T18:10:47.989Z,4058.9
2022-10-24T18:16:42.024Z,4056
2022-10-24T18:22:22.215Z,4055.8
2022-10-24T18:27:57.190Z,4056.2
2022-10-24T18:33:36.196Z,4056
2022-10-24T18:39:14.745Z,4055.7
2022-10-24T18:44:53.041Z,4054.7
2022-10-24T18:50:28.820Z,4054.5
2022-10-24T18:57:29.339Z,4055.5
2022-10-24T19:03:12.738Z,4051
2022-10-24T19:08:56.625Z,4051
2022-10-24T19:14:43.012Z,4052.8
2022-10-24T19:20:33.825Z,4049.5
2022-10-24T19:26:09.174Z,4050.1
2022-10-24T19:31:44.227Z,4051
2022-10-24T19:37:27.287Z,4052.3
2022-10-24T19:43:08.445Z,4050.1
2022-10-24T19:48:53.358Z,4051
2022-10-24T19:54:31.747Z,4050.5
2022-10-24T20:00:06.728Z,4047.6
2022-10-24T20:05:45.095Z,4053.2
2022-10-24T20:11:21.468Z,4048.3
2022-10-24T20:17:14.122Z,4048.1
2022-10-24T20:23:07.950Z,4051.3
2022-10-24T20:28:43.924Z,4048.1
2022-10-24T20:34:19.103Z,4046.3
2022-10-24T20:39:53.900Z,4047
2022-10-24T20:45:37.630Z,4045.8
2022-10-24T20:51:14.525Z,4046.1
2022-10-24T20:56:49.577Z,4044.8
2022-10-24T21:02:26.492Z,4045.5
2022-10-24T21:08:01.996Z,4047.5
2022-10-24T21:13:36.957Z,4046.3
2022-10-24T21:19:36.582Z,4047.6
2022-10-24T21:25:17.630Z,4044.3
2022-10-24T21:31:04.739Z,4045.3
2022-10-24T21:36:39.675Z,4045.1
2022-10-24T21:42:15.621Z,4045.3
2022-10-24T21:47:54.651Z,4044
2022-10-24T21:53:32.344Z,4044.5
2022-10-24T21:59:44.338Z,4044
2022-10-24T22:05:22.683Z,4044.1
2022-10-24T22:11:01.830Z,4044.3
2022-10-24T22:16:45.233Z,4042.4
2022-10-24T22:22:20.427Z,4042.9
2022-10-24T22:28:00.373Z,4042.8
2022-10-24T22:33:42.361Z,4043.4
2022-10-24T22:39:23.079Z,4043.4
2022-10-24T22:45:10.440Z,4043.6
2022-10-24T22:50:54.276Z,4045.3
2022-10-24T22:56:30.245Z,4044.8
2022-10-24T23:02:19.526Z,4044.6
2022-10-24T23:07:54.890Z,4042.9
2022-10-24T23:13:30.022Z,4041.6
2022-10-24T23:19:29.245Z,4043.4
2022-10-24T23:25:26.185Z,4040.1
2022-10-24T23:31:11.894Z,4040.9
2022-10-24T23:36:51.178Z,4041.9
2022-10-24T23:42:33.918Z,4042.9
2022-10-24T23:48:16.734Z,4042.9
2022-10-24T23:53:51.803Z,4042.1
2022-10-24T23:59:29.017Z,4042.1
